Time;durP1;ratioP1;P1;durP2;ratioP2;P2;SDS_P1;SDS_P2;PMS_P1;PMS_P2;Temp;Humidity;BMP_temperature;BMP_pressure;BME280_temperature;BME280_humidity;BME280_pressure;Samples;Min_cycle;Max_cycle;Signal;HPM_P1;HPM_P2
2022/05/01 00:01:03;;;;;;;25.85;12.82;;;;;;;6.97;81.42;102510.59;5096333;28;20036;-36
2022/05/01 00:03:31;;;;;;;20.63;12.98;;;;;;;6.95;81.24;102512.53;5088421;28;20036;-33
2022/05/01 00:05:58;;;;;;;27.20;13.73;;;;;;;6.92;81.48;102510.94;5090121;28;20092;-33
2022/05/01 00:08:23;;;;;;;27.58;13.50;;;;;;;6.90;81.68;102506.66;5103292;28;20037;-34
2022/05/01 00:10:49;;;;;;;26.77;13.48;;;;;;;6.85;81.22;102512.41;5100461;28;20063;-33
2022/05/01 00:13:15;;;;;;;29.60;14.00;;;;;;;6.83;81.55;102500.94;5089229;28;20037;-34
2022/05/01 00:15:40;;;;;;;25.80;13.93;;;;;;;6.81;81.56;102498.38;5100564;28;20035;-34
2022/05/01 00:18:06;;;;;;;24.85;11.73;;;;;;;6.79;81.63;102508.38;5096883;28;20032;-34
2022/05/01 00:20:31;;;;;;;22.77;13.38;;;;;;;6.78;81.60;102501.28;5088045;28;20063;-34
2022/05/01 00:22:57;;;;;;;28.50;14.20;;;;;;;6.78;82.00;102509.31;5101870;28;20039;-34
2022/05/01 00:25:22;;;;;;;27.90;14.25;;;;;;;6.76;81.68;102503.22;5104631;28;20028;-34
2022/05/01 00:27:47;;;;;;;22.35;12.50;;;;;;;6.71;81.24;102505.38;5092203;28;20058;-34
2022/05/01 00:30:13;;;;;;;21.67;13.75;;;;;;;6.67;81.23;102487.88;5090108;28;20078;-33
2022/05/01 00:38:06;;;;;;;23.65;14.15;;;;;;;6.52;82.56;102486.34;5111902;28;20069;-33
2022/05/01 00:40:32;;;;;;;27.75;13.88;;;;;;;6.51;82.61;102492.69;5109228;28;20012;-33
2022/05/01 00:43:02;;;;;;;23.27;13.93;;;;;;;6.51;82.63;102488.19;5099278;28;20032;-34
2022/05/01 00:45:27;;;;;;;24.23;13.77;;;;;;;6.50;82.61;102485.59;5096239;28;20028;-35
2022/05/01 00:47:53;;;;;;;29.75;14.60;;;;;;;6.48;82.55;102482.22;5096615;28;20127;-34
2022/05/01 00:50:19;;;;;;;26.25;14.38;;;;;;;6.47;81.99;102475.16;5092682;28;20027;-34
2022/05/01 00:52:45;;;;;;;31.30;14.88;;;;;;;6.38;82.17;102471.34;5091028;28;20027;-32
2022/05/01 00:55:11;;;;;;;22.85;14.80;;;;;;;6.36;82.75;102466.09;5090933;28;20024;-34
2022/05/01 00:57:36;;;;;;;27.02;14.40;;;;;;;6.33;82.98;102465.47;5090003;28;20043;-35
2022/05/01 01:00:04;;;;;;;26.63;14.48;;;;;;;6.31;83.08;102476.28;5101972;28;20044;-33
2022/05/01 01:02:31;;;;;;;27.30;14.77;;;;;;;6.31;83.34;102465.59;5096214;28;20039;-34
2022/05/01 01:04:56;;;;;;;28.05;15.48;;;;;;;6.31;83.45;102465.59;5094305;28;20021;-33
2022/05/01 01:07:22;;;;;;;28.50;15.13;;;;;;;6.30;83.04;102463.03;5102949;28;20028;-34
2022/05/01 01:09:47;;;;;;;27.40;14.68;;;;;;;6.28;83.16;102471.16;5110092;28;20027;-34
2022/05/01 01:15:09;;;;;;;27.25;14.77;;;;;;;6.17;82.89;102471.13;5106277;28;20066;-31
2022/05/01 01:17:43;;;;;;;26.95;15.23;;;;;;;6.14;82.91;102474.88;5097318;28;20036;-34
2022/05/01 01:20:11;;;;;;;28.40;14.98;;;;;;;6.08;82.78;102463.75;5105465;28;20024;-33
2022/05/01 01:22:37;;;;;;;23.42;14.95;;;;;;;6.04;82.68;102464.97;5103487;28;20039;-36
2022/05/01 01:25:03;;;;;;;26.15;14.88;;;;;;;6.00;83.56;102456.31;5107344;28;20073;-32
2022/05/01 01:27:28;;;;;;;23.90;15.25;;;;;;;5.96;83.81;102460.19;5087981;28;20032;-33
2022/05/01 01:32:39;;;;;;;33.85;16.42;;;;;;;5.89;84.29;102454.38;5097312;28;20058;-37
2022/05/01 01:35:06;;;;;;;30.77;16.70;;;;;;;5.88;84.60;102458.03;5102359;28;20039;-34
2022/05/01 01:37:33;;;;;;;31.70;16.02;;;;;;;5.86;84.33;102457.28;5091204;28;20039;-35
2022/05/01 01:39:58;;;;;;;30.23;15.23;;;;;;;5.84;84.47;102458.34;5100168;28;20096;-35
2022/05/01 01:42:25;;;;;;;26.98;15.98;;;;;;;5.78;84.15;102462.34;5100048;28;20028;-37
2022/05/01 01:44:52;;;;;;;26.42;15.48;;;;;;;5.75;83.98;102461.72;5095024;28;20059;-34
2022/05/01 01:47:18;;;;;;;30.58;15.65;;;;;;;5.72;84.73;102460.97;5102662;28;20021;-35
2022/05/01 01:49:43;;;;;;;28.75;15.80;;;;;;;5.66;84.73;102458.75;5094143;28;20035;-35
2022/05/01 01:52:08;;;;;;;27.83;15.52;;;;;;;5.67;85.19;102462.25;5101145;28;20039;-36
2022/05/01 01:54:34;;;;;;;26.73;15.63;;;;;;;5.68;85.54;102466.63;5104128;28;20035;-36
2022/05/01 01:56:59;;;;;;;28.35;15.95;;;;;;;5.66;85.13;102465.88;5100144;28;20028;-35
2022/05/01 01:59:25;;;;;;;34.83;16.10;;;;;;;5.65;85.15;102470.38;5099177;28;20031;-34
2022/05/01 02:01:51;;;;;;;28.10;16.33;;;;;;;5.64;85.24;102466.00;5097424;28;20101;-33
2022/05/01 02:04:17;;;;;;;28.60;16.05;;;;;;;5.66;85.39;102458.75;5098976;28;20522;-33
2022/05/01 02:06:43;;;;;;;28.45;15.60;;;;;;;5.67;85.51;102459.59;5107028;28;20044;-33
2022/05/01 02:09:09;;;;;;;31.20;15.77;;;;;;;5.65;84.93;102462.34;5099350;28;20055;-33
2022/05/01 02:11:35;;;;;;;32.92;15.60;;;;;;;5.59;84.82;102461.97;5109316;28;20032;-33
2022/05/01 02:14:01;;;;;;;30.02;17.20;;;;;;;5.57;84.95;102459.38;5106083;28;20440;-33
2022/05/01 02:16:26;;;;;;;28.23;16.90;;;;;;;5.53;85.13;102457.03;5087603;28;20054;-36
2022/05/01 02:18:52;;;;;;;29.20;16.08;;;;;;;5.47;85.65;102459.19;5094204;28;20032;-36
2022/05/01 02:21:35;;;;;;;29.67;15.95;;;;;;;5.44;85.16;102447.88;5104328;28;20080;-33
2022/05/01 02:24:05;;;;;;;32.70;17.40;;;;;;;5.42;85.71;102450.63;5093133;28;20040;-34
2022/05/01 02:26:30;;;;;;;31.40;17.38;;;;;;;5.43;85.83;102447.03;5104241;28;20032;-33
2022/05/01 02:28:57;;;;;;;31.98;18.17;;;;;;;5.42;86.18;102441.78;5100812;28;20023;-33
2022/05/01 02:31:22;;;;;;;35.63;16.95;;;;;;;5.38;86.39;102437.63;5089549;28;20119;-33
2022/05/01 02:33:47;;;;;;;35.75;18.55;;;;;;;5.39;86.39;102445.53;5121164;22;20107;-30
2022/05/01 02:36:15;;;;;;;38.95;18.23;;;;;;;5.36;86.62;102440.41;5090704;28;20435;-28
2022/05/01 02:38:41;;;;;;;35.10;17.30;;;;;;;5.35;86.51;102433.38;5101484;28;20034;-29
2022/05/01 02:41:06;;;;;;;34.78;17.23;;;;;;;5.34;86.85;102436.13;5091302;28;20170;-29
2022/05/01 02:43:31;;;;;;;32.38;17.52;;;;;;;5.30;86.45;102430.16;5095322;28;20020;-29
2022/05/01 02:45:57;;;;;;;31.00;16.65;;;;;;;5.30;86.39;102430.16;5109361;28;20032;-29
2022/05/01 02:48:22;;;;;;;32.83;16.13;;;;;;;5.31;86.53;102428.34;5093844;28;20024;-29
2022/05/01 02:50:47;;;;;;;36.53;17.77;;;;;;;5.28;86.68;102426.75;5089239;28;20125;-30
2022/05/01 02:53:13;;;;;;;36.63;18.63;;;;;;;5.28;86.87;102429.41;5101396;28;20088;-30
2022/05/01 02:55:38;;;;;;;27.67;17.13;;;;;;;5.31;87.10;102423.00;5096252;28;20077;-31
2022/05/01 02:58:04;;;;;;;28.67;16.33;;;;;;;5.31;87.03;102429.19;5093102;28;20111;-30
2022/05/01 03:00:29;;;;;;;32.03;17.85;;;;;;;5.30;86.57;102434.66;5090622;28;20043;-30
2022/05/01 03:02:57;;;;;;;28.52;16.75;;;;;;;5.28;86.79;102426.75;5100342;28;20466;-30
2022/05/01 03:05:26;;;;;;;29.42;16.42;;;;;;;5.26;86.13;102428.66;5096492;28;20036;-31
2022/05/01 03:07:55;;;;;;;31.67;16.65;;;;;;;5.21;86.50;102423.66;5102716;28;20055;-29
2022/05/01 03:10:23;;;;;;;29.48;17.23;;;;;;;5.20;86.67;102415.75;5099677;28;20038;-29
2022/05/01 03:12:49;;;;;;;;;;;;;;;5.19;86.54;102417.59;5105854;28;20028;-29
2022/05/01 03:15:14;;;;;;;34.72;18.52;;;;;;;5.17;86.67;102415.97;5094047;28;19991;-29
2022/05/01 03:23:07;;;;;;;35.35;17.60;;;;;;;5.10;86.45;102414.69;5097493;28;20030;-29
2022/05/01 03:25:33;;;;;;;31.00;18.00;;;;;;;5.10;86.58;102412.03;5098258;28;20024;-30
2022/05/01 03:27:59;;;;;;;31.38;17.65;;;;;;;5.07;86.49;102418.44;5092485;28;20478;-29
2022/05/01 03:30:24;;;;;;;36.08;18.30;;;;;;;5.04;86.64;102408.81;5094751;28;20398;-30
2022/05/01 03:32:50;;;;;;;33.08;18.15;;;;;;;5.03;86.65;102415.13;5098647;28;20428;-28
2022/05/01 03:35:17;;;;;;;34.47;18.42;;;;;;;5.02;86.62;102412.56;5086991;28;20055;-32
2022/05/01 03:37:42;;;;;;;35.15;18.92;;;;;;;4.98;86.14;102411.94;5085625;28;20028;-30
2022/05/01 03:40:10;;;;;;;34.90;18.13;;;;;;;4.95;86.92;102404.16;5085497;28;20050;-29
2022/05/01 03:42:35;;;;;;;34.13;18.83;;;;;;;4.94;86.97;102407.75;5087136;28;20032;-29
2022/05/01 03:45:00;;;;;;;41.50;19.75;;;;;;;4.93;86.95;102402.53;5067899;28;20024;-30
2022/05/01 03:47:25;;;;;;;41.85;18.77;;;;;;;4.93;87.18;102397.22;5067313;28;20025;-31
2022/05/01 03:49:51;;;;;;;36.50;18.15;;;;;;;4.92;87.33;102396.34;5073767;28;20367;-29
2022/05/01 03:52:16;;;;;;;40.90;19.38;;;;;;;4.91;87.32;102399.97;5084087;28;20399;-30
2022/05/01 03:54:41;;;;;;;40.08;19.88;;;;;;;4.93;87.04;102394.53;5075801;28;20455;-29
2022/05/01 03:57:09;;;;;;;37.67;20.38;;;;;;;4.90;87.24;102400.06;5086454;28;20530;-28
2022/05/01 03:59:34;;;;;;;38.28;19.70;;;;;;;4.90;87.74;102398.28;5084639;28;20024;-29
2022/05/01 04:01:59;;;;;;;37.60;18.45;;;;;;;4.91;87.48;102405.31;5083020;28;20055;-30
2022/05/01 04:04:25;;;;;;;38.22;19.23;;;;;;;4.89;87.70;102404.56;5084147;28;20032;-30
2022/05/01 04:06:51;;;;;;;40.35;18.85;;;;;;;4.91;87.48;102404.47;5081239;28;20035;-29
2022/05/01 04:09:16;;;;;;;42.35;18.02;;;;;;;4.95;87.42;102403.28;5078534;28;20036;-30
2022/05/01 04:11:41;;;;;;;34.83;18.27;;;;;;;4.99;87.26;102410.13;5090036;28;20024;-29
2022/05/01 04:14:06;;;;;;;32.17;19.02;;;;;;;5.03;87.63;102407.13;5084050;28;20032;-30
2022/05/01 04:16:35;;;;;;;31.27;17.88;;;;;;;5.05;87.37;102407.88;5074750;28;20386;-30
2022/05/01 04:19:00;;;;;;;32.55;17.45;;;;;;;5.08;86.98;102404.13;5082774;28;20081;-29
2022/05/01 04:21:26;;;;;;;33.67;18.17;;;;;;;5.12;86.85;102400.28;5071972;28;20032;-29
2022/05/01 04:23:51;;;;;;;36.58;18.02;;;;;;;5.14;86.74;102398.38;5087987;28;20043;-30
2022/05/01 04:26:17;;;;;;;34.13;18.02;;;;;;;5.16;86.73;102408.91;5089359;28;20047;-30
2022/05/01 04:29:36;;;;;;;33.83;17.67;;;;;;;5.23;86.98;102407.53;5082993;28;20445;-27
2022/05/01 04:31:27;;;;;;;34.28;18.63;;;;;;;5.30;86.71;102407.97;5074314;28;20044;-29
2022/05/01 04:33:53;;;;;;;40.28;17.27;;;;;;;5.37;86.63;102410.09;5070312;28;20044;-28
2022/05/01 04:36:19;;;;;;;32.97;17.40;;;;;;;5.43;86.71;102404.31;5078526;28;20021;-27
2022/05/01 04:38:44;;;;;;;32.50;17.77;;;;;;;5.52;86.66;102408.13;5070511;28;20592;-29
2022/05/01 04:41:09;;;;;;;31.27;16.90;;;;;;;5.56;85.91;102406.94;5078138;28;20126;-29
2022/05/01 04:43:36;;;;;;;29.77;16.45;;;;;;;5.61;85.99;102415.47;5089144;28;20024;-30
2022/05/01 04:46:02;;;;;;;33.00;17.52;;;;;;;5.69;85.81;102409.59;5083776;28;20513;-29
2022/05/01 04:48:27;;;;;;;34.55;18.90;;;;;;;5.77;85.51;102412.56;5084652;28;20020;-30
2022/05/01 04:50:53;;;;;;;35.15;18.95;;;;;;;5.84;85.92;102413.78;5077236;28;20194;-31
2022/05/01 04:53:19;;;;;;;34.00;18.58;;;;;;;5.93;85.95;102422.97;5080198;28;20216;-29
2022/05/01 04:55:46;;;;;;;35.50;18.52;;;;;;;6.07;86.36;102430.00;5069734;28;20028;-29
2022/05/01 04:58:14;;;;;;;37.47;19.20;;;;;;;6.19;86.58;102429.09;5075770;28;20033;-31
2022/05/01 05:00:40;;;;;;;32.80;17.90;;;;;;;6.31;86.20;102425.47;5080844;28;20039;-30
2022/05/01 05:03:05;;;;;;;34.28;18.20;;;;;;;6.44;86.08;102427.25;5075785;28;20040;-28
2022/05/01 05:05:32;;;;;;;36.88;18.98;;;;;;;6.60;85.69;102423.25;5071182;28;20028;-29
2022/05/01 05:10:42;;;;;;;38.40;19.55;;;;;;;6.84;84.75;102438.41;5080669;28;20056;-29
2022/05/01 05:13:08;;;;;;;35.30;17.92;;;;;;;6.96;84.25;102437.47;5078163;28;20486;-30
2022/05/01 05:15:34;;;;;;;32.72;18.23;;;;;;;7.13;84.27;102441.50;5074073;28;20376;-28
2022/05/01 05:17:59;;;;;;;33.10;18.15;;;;;;;7.28;84.17;102438.59;5087407;28;20107;-28
2022/05/01 05:20:24;;;;;;;27.98;17.15;;;;;;;7.42;83.77;102435.66;5086829;28;20171;-29
2022/05/01 05:22:50;;;;;;;31.45;16.48;;;;;;;7.60;83.53;102444.06;5069730;28;20437;-30
2022/05/01 05:25:19;;;;;;;28.67;15.88;;;;;;;7.80;82.58;102448.69;5102075;28;20041;-32
2022/05/01 05:27:45;;;;;;;33.50;17.30;;;;;;;7.91;81.87;102450.47;5095220;28;20028;-30
2022/05/01 05:30:11;;;;;;;32.95;15.98;;;;;;;7.99;81.13;102447.19;5098970;28;20023;-28
2022/05/01 05:32:36;;;;;;;32.53;16.67;;;;;;;8.02;80.56;102445.09;5106475;28;20082;-31
2022/05/01 05:35:01;;;;;;;30.55;15.25;;;;;;;8.23;80.46;102452.34;5102703;28;20090;-30
2022/05/01 05:37:27;;;;;;;29.52;16.45;;;;;;;8.38;80.00;102450.22;5108475;28;20024;-29
2022/05/01 05:39:52;;;;;;;25.55;14.93;;;;;;;8.43;79.70;102448.06;5108891;28;20035;-29
2022/05/01 05:42:18;;;;;;;24.83;14.73;;;;;;;8.55;78.83;102458.56;5110520;28;20092;-30
2022/05/01 05:44:43;;;;;;;30.42;14.48;;;;;;;8.73;78.03;102460.69;5110181;28;20024;-30
2022/05/01 05:47:08;;;;;;;24.73;14.52;;;;;;;8.84;76.76;102455.25;5108645;28;20655;-30
2022/05/01 05:49:34;;;;;;;23.85;14.63;;;;;;;8.99;75.77;102463.84;5108683;28;20064;-30
2022/05/01 05:52:00;;;;;;;21.40;14.25;;;;;;;9.11;75.96;102464.59;5108020;28;20032;-29
2022/05/01 05:54:25;;;;;;;25.90;13.95;;;;;;;9.29;76.25;102468.38;5078454;28;20111;-30
2022/05/01 05:56:51;;;;;;;25.27;14.52;;;;;;;9.84;75.84;102468.88;5088706;28;20447;-30
2022/05/01 05:59:17;;;;;;;22.27;13.73;;;;;;;10.45;72.75;102467.03;5087691;28;20071;-28
2022/05/01 06:01:42;;;;;;;21.85;13.32;;;;;;;10.82;70.04;102475.25;5089168;28;20020;-30
2022/05/01 06:04:08;;;;;;;21.33;13.80;;;;;;;11.06;68.98;102466.72;5075593;28;20079;-29
2022/05/01 06:06:34;;;;;;;31.30;12.43;;;;;;;11.07;68.28;102473.78;5068800;28;20048;-30
2022/05/01 06:09:00;;;;;;;21.45;12.68;;;;;;;10.84;67.59;102475.09;5074085;28;20060;-30
2022/05/01 06:11:25;;;;;;;20.30;12.52;;;;;;;10.69;69.07;102480.94;5108213;28;20051;-31
2022/05/01 06:13:51;;;;;;;21.35;12.13;;;;;;;10.68;68.69;102481.06;5109401;28;20020;-29
2022/05/01 06:16:17;;;;;;;20.80;12.85;;;;;;;10.49;68.99;102480.06;5107295;28;20042;-31
2022/05/01 06:18:42;;;;;;;20.05;13.45;;;;;;;10.42;69.58;102486.16;5109184;28;20031;-31
2022/05/01 06:21:07;;;;;;;30.92;14.05;;;;;;;10.32;69.99;102478.94;5109256;28;20032;-29
2022/05/01 06:23:34;;;;;;;20.27;13.75;;;;;;;10.10;70.58;102480.00;5109237;28;20031;-28
2022/05/01 06:26:01;;;;;;;22.93;13.43;;;;;;;10.10;71.37;102484.53;5096908;28;20082;-29
2022/05/01 06:28:27;;;;;;;21.15;13.02;;;;;;;10.06;71.47;102478.59;5108446;28;20035;-29
2022/05/01 06:30:53;;;;;;;21.50;13.55;;;;;;;10.04;71.81;102471.66;5109493;28;20383;-29
2022/05/01 06:33:20;;;;;;;25.08;15.95;;;;;;;10.08;72.52;102471.25;5094050;28;20529;-29
2022/05/01 06:35:50;;;;;;;24.90;14.98;;;;;;;10.17;72.53;102474.91;5088574;28;20028;-29
2022/05/01 06:38:15;;;;;;;26.92;13.98;;;;;;;10.37;72.28;102474.97;5088711;28;20027;-29
2022/05/01 06:40:45;;;;;;;29.23;14.20;;;;;;;10.52;71.21;102477.09;5088816;28;20493;-29
2022/05/01 06:43:15;;;;;;;28.42;14.27;;;;;;;10.65;70.42;102468.75;5087058;28;20073;-30
2022/05/01 06:45:45;;;;;;;21.65;13.80;;;;;;;10.65;70.70;102479.50;5089165;28;20360;-30
2022/05/01 06:48:10;;;;;;;23.35;14.98;;;;;;;10.66;70.54;102478.50;5088332;28;20063;-29
2022/05/01 06:50:36;;;;;;;24.50;13.98;;;;;;;10.87;71.54;102480.19;5087063;28;20081;-30
2022/05/01 06:53:02;;;;;;;28.63;14.35;;;;;;;11.14;70.70;102477.59;5088304;28;20136;-31
2022/05/01 06:55:28;;;;;;;23.67;14.05;;;;;;;11.63;69.83;102472.88;5088414;28;20499;-31
2022/05/01 06:57:53;;;;;;;23.48;13.35;;;;;;;12.20;67.90;102474.59;5090530;28;20020;-31
2022/05/01 07:00:19;;;;;;;23.20;14.02;;;;;;;12.29;65.97;102470.97;5100457;28;20501;-31
2022/05/01 07:02:46;;;;;;;20.70;12.70;;;;;;;12.49;64.07;102469.81;5106187;28;20616;-29
2022/05/01 07:05:11;;;;;;;21.40;12.00;;;;;;;12.57;63.95;102468.19;5107121;28;20020;-30
2022/05/01 07:07:37;;;;;;;21.83;12.35;;;;;;;12.60;63.64;102465.19;5093817;28;20038;-30
2022/05/01 07:10:03;;;;;;;19.65;11.98;;;;;;;12.89;63.93;102465.75;5090223;28;20039;-30
2022/05/01 07:12:28;;;;;;;16.05;11.65;;;;;;;13.11;62.71;102463.53;5083439;28;20028;-28
2022/05/01 07:14:53;;;;;;;17.90;11.57;;;;;;;13.56;60.12;102460.63;5074158;28;20021;-29
2022/05/01 07:17:19;;;;;;;21.50;12.18;;;;;;;13.59;60.36;102465.72;5078431;28;20108;-29
2022/05/01 07:19:44;;;;;;;17.35;10.45;;;;;;;14.66;58.12;102474.09;5072874;28;20039;-30
2022/05/01 07:22:14;;;;;;;18.83;8.80;;;;;;;15.08;54.56;102468.47;5070789;28;20442;-29
2022/05/01 07:24:39;;;;;;;13.32;9.45;;;;;;;14.96;54.32;102475.28;5077422;28;20078;-30
2022/05/01 07:27:04;;;;;;;14.13;9.30;;;;;;;15.14;54.43;102466.97;5088442;28;20020;-29
2022/05/01 07:29:30;;;;;;;17.20;7.95;;;;;;;15.98;51.01;102476.34;5070602;28;20044;-30
2022/05/01 07:31:55;;;;;;;10.07;6.90;;;;;;;16.53;49.06;102470.91;5069146;28;20108;-31
2022/05/01 07:34:21;;;;;;;10.57;6.63;;;;;;;16.76;48.53;102471.72;5082989;28;20080;-31
2022/05/01 07:36:46;;;;;;;13.77;7.15;;;;;;;17.13;45.95;102478.22;5090705;28;20456;-31
2022/05/01 07:39:12;;;;;;;11.57;7.57;;;;;;;16.98;46.54;102472.78;5084674;28;20024;-31
2022/05/01 07:41:37;;;;;;;11.00;6.28;;;;;;;17.28;45.36;102470.91;5094397;28;20028;-31
2022/05/01 07:44:03;;;;;;;11.13;5.25;;;;;;;17.55;43.05;102465.84;5093651;28;20035;-32
2022/05/01 07:46:28;;;;;;;9.32;5.00;;;;;;;18.86;39.75;102469.44;5073652;28;20036;-33
2022/05/01 07:48:55;;;;;;;9.57;4.88;;;;;;;19.87;37.45;102472.59;5075251;28;20040;-29
2022/05/01 07:51:20;;;;;;;8.25;5.45;;;;;;;19.80;36.88;102473.59;5074157;28;20048;-31
2022/05/01 07:53:45;;;;;;;11.60;5.88;;;;;;;19.88;36.54;102477.03;5075121;28;20040;-30
2022/05/01 07:56:11;;;;;;;13.18;7.13;;;;;;;19.35;38.82;102475.84;5095012;28;20103;-29
2022/05/01 07:58:36;;;;;;;7.57;5.47;;;;;;;20.22;37.85;102467.03;5074321;28;20037;-30
2022/05/01 08:01:03;;;;;;;8.88;5.22;;;;;;;21.26;34.28;102462.88;5073618;28;20031;-29
2022/05/01 08:06:14;;;;;;;7.70;4.90;;;;;;;21.32;33.58;102461.16;5073830;28;20095;-30
2022/05/01 08:08:40;;;;;;;6.40;4.30;;;;;;;21.74;33.76;102459.78;5078265;28;20029;-30
2022/05/01 08:11:06;;;;;;;6.15;4.30;;;;;;;23.16;30.03;102464.97;5092499;28;20024;-30
2022/05/01 08:13:32;;;;;;;8.48;4.60;;;;;;;21.51;31.90;102456.72;5083131;28;20119;-31
2022/05/01 08:15:57;;;;;;;6.80;3.38;;;;;;;21.64;31.24;102463.00;5091773;28;20103;-31
2022/05/01 08:21:09;;;;;;;5.45;3.28;;;;;;;21.80;30.96;102447.09;5072630;28;20067;-30
2022/05/01 08:23:39;;;;;;;5.05;3.42;;;;;;;22.12;29.48;102458.97;5075103;28;20044;-29
2022/05/01 08:26:06;;;;;;;5.32;2.85;;;;;;;21.44;30.60;102459.47;5075008;28;20040;-29
2022/05/01 08:28:37;;;;;;;5.85;3.50;;;;;;;21.26;30.17;102462.88;5073377;28;20035;-31
2022/05/01 08:31:05;;;;;;;6.68;3.92;;;;;;;21.47;30.80;102456.31;5073583;28;20497;-31
2022/05/01 08:33:30;;;;;;;;;;;;;;;21.52;30.91;102461.97;5072141;28;20044;-31
2022/05/01 08:35:55;;;;;;;8.13;4.20;;;;;;;20.50;31.41;102457.81;5072144;28;19913;-29
2022/05/01 08:38:21;;;;;;;9.23;3.90;;;;;;;20.87;31.01;102452.81;5073308;28;20081;-31
2022/05/01 08:40:49;;;;;;;7.40;4.05;;;;;;;21.23;30.68;102447.69;5072041;28;20078;-30
2022/05/01 08:43:15;;;;;;;7.18;4.30;;;;;;;20.97;31.59;102447.75;5073389;28;20476;-31
2022/05/01 08:45:52;;;;;;;5.10;3.97;;;;;;;19.73;34.18;102451.72;5071922;28;20060;-29
2022/05/01 08:48:30;;;;;;;9.82;4.47;;;;;;;19.91;33.53;102445.72;5073470;28;20082;-30
2022/05/01 08:50:56;;;;;;;7.00;4.00;;;;;;;20.30;34.06;102439.50;5073115;28;20024;-30
2022/05/01 08:53:23;;;;;;;8.82;4.43;;;;;;;21.80;31.33;102445.22;5054896;28;20539;-30
2022/05/01 08:55:49;;;;;;;6.40;4.30;;;;;;;22.13;29.59;102436.81;5073285;28;20028;-30
2022/05/01 08:58:15;;;;;;;7.72;4.80;;;;;;;22.32;29.58;102442.41;5073460;28;20032;-31
2022/05/01 09:00:41;;;;;;;6.43;4.57;;;;;;;21.99;30.11;102439.88;5071774;28;20029;-31
2022/05/01 09:03:07;;;;;;;9.38;4.65;;;;;;;22.35;29.68;102439.22;5073224;28;20079;-29
2022/05/01 09:05:34;;;;;;;7.20;5.00;;;;;;;21.67;30.79;102443.38;5072697;28;20020;-30
2022/05/01 09:07:59;;;;;;;8.45;4.78;;;;;;;20.67;31.35;102447.31;5071507;28;20047;-31
2022/05/01 09:10:31;;;;;;;11.70;5.50;;;;;;;19.74;32.66;102451.50;5073012;28;20036;-31
2022/05/01 09:12:57;;;;;;;12.75;5.15;;;;;;;18.31;34.88;102449.19;5072837;28;20067;-30
2022/05/01 09:15:34;;;;;;;8.80;4.03;;;;;;;17.14;35.41;102452.72;5072631;28;20049;-31
2022/05/01 09:18:08;;;;;;;5.93;4.57;;;;;;;16.36;36.51;102446.56;5072513;28;20103;-31
2022/05/01 09:20:39;;;;;;;6.15;5.28;;;;;;;15.91;38.66;102440.06;5071012;28;20024;-31
2022/05/01 09:23:06;;;;;;;8.05;5.03;;;;;;;15.95;38.07;102448.69;5072837;28;20029;-31
2022/05/01 09:25:32;;;;;;;9.20;5.28;;;;;;;14.96;40.64;102442.75;5072494;28;20025;-30
2022/05/01 09:28:01;;;;;;;8.18;5.47;;;;;;;15.34;41.12;102445.72;5072562;28;20029;-29
2022/05/01 09:30:35;;;;;;;9.75;5.57;;;;;;;14.84;41.73;102444.97;5072070;28;20119;-30
2022/05/01 09:33:01;;;;;;;9.23;6.00;;;;;;;14.63;42.51;102445.47;5072068;28;20087;-30
2022/05/01 09:35:26;;;;;;;10.10;6.38;;;;;;;14.78;41.75;102444.81;5070704;28;20438;-31
2022/05/01 09:38:09;;;;;;;10.13;6.30;;;;;;;14.79;42.74;102449.19;5071980;28;20051;-30
2022/05/01 09:40:34;;;;;;;9.93;5.72;;;;;;;14.89;42.50;102452.59;5071822;28;20037;-30
2022/05/01 09:42:59;;;;;;;12.05;5.80;;;;;;;15.69;41.00;102451.72;5070774;28;20029;-31
2022/05/01 09:45:32;;;;;;;10.23;5.78;;;;;;;16.01;39.60;102454.28;5082760;28;20027;-31
2022/05/01 09:47:57;;;;;;;10.05;5.22;;;;;;;16.02;39.69;102455.13;5088021;28;20095;-31
2022/05/01 09:50:40;;;;;;;11.15;6.72;;;;;;;15.96;39.28;102453.13;5082403;28;20162;-30
2022/05/01 09:53:06;;;;;;;9.25;6.07;;;;;;;16.58;38.45;102452.16;5091901;28;20107;-30
2022/05/01 09:55:31;;;;;;;11.82;6.55;;;;;;;16.92;37.28;102450.88;5084645;28;20140;-30
2022/05/01 09:58:11;;;;;;;12.68;6.07;;;;;;;16.63;37.82;102447.88;5074458;28;20028;-30
2022/05/01 10:00:45;;;;;;;10.95;6.47;;;;;;;16.63;37.97;102441.59;5069789;28;20024;-31
2022/05/01 10:03:31;;;;;;;10.73;6.05;;;;;;;16.28;38.24;102443.91;5069525;28;20024;-30
2022/05/01 10:05:58;;;;;;;9.23;5.93;;;;;;;15.60;39.04;102442.72;5071284;28;20025;-30
2022/05/01 10:08:24;;;;;;;10.98;6.15;;;;;;;14.90;40.58;102432.56;5073902;28;20112;-29
2022/05/01 10:10:54;;;;;;;9.65;6.45;;;;;;;14.91;40.84;102439.72;5087935;28;20118;-31
2022/05/01 10:13:26;;;;;;;11.50;6.38;;;;;;;14.87;41.53;102433.75;5071925;28;20016;-29
2022/05/01 10:15:52;;;;;;;10.30;6.05;;;;;;;15.94;40.13;102423.41;5072725;28;20492;-29
2022/05/01 10:18:18;;;;;;;13.27;6.18;;;;;;;16.60;37.67;102428.38;5072177;28;20029;-29
2022/05/01 10:20:43;;;;;;;10.48;5.93;;;;;;;17.03;36.95;102423.22;5071406;28;20024;-30
2022/05/01 10:23:10;;;;;;;13.45;5.55;;;;;;;17.76;34.80;102425.06;5071391;28;20150;-29
2022/05/01 10:25:39;;;;;;;9.37;5.07;;;;;;;19.22;32.95;102425.63;5076416;28;20028;-31
2022/05/01 10:28:27;;;;;;;10.85;5.53;;;;;;;20.13;31.53;102421.78;5075287;28;20318;-29
2022/05/01 10:34:29;;;;;;;12.73;6.57;;;;;;;19.44;31.69;102426.34;5071295;28;20130;-30
2022/05/01 10:37:16;;;;;;;12.45;6.72;;;;;;;19.14;32.88;102411.25;5084130;28;20028;-30
2022/05/01 10:39:42;;;;;;;8.50;5.78;;;;;;;20.41;32.13;102412.59;5080314;28;20039;-30
2022/05/01 10:42:08;;;;;;;10.20;6.65;;;;;;;20.56;30.96;102418.72;5083740;28;20401;-30
2022/05/01 10:44:38;;;;;;;8.32;5.30;;;;;;;20.16;31.02;102416.75;5070632;28;20067;-31
2022/05/01 10:47:12;;;;;;;10.07;4.70;;;;;;;21.18;28.09;102400.97;5082202;28;20059;-30
2022/05/01 10:49:44;;;;;;;8.13;4.80;;;;;;;21.37;28.61;102403.84;5073319;28;20036;-31
2022/05/01 10:52:15;;;;;;;9.93;5.53;;;;;;;20.71;29.42;102411.13;5090806;28;20020;-30
2022/05/01 10:54:41;;;;;;;8.63;5.68;;;;;;;21.05;30.04;102398.25;5089492;28;20092;-31
2022/05/01 10:57:09;;;;;;;9.73;6.40;;;;;;;21.48;28.85;102392.25;5089523;28;20550;-29
2022/05/01 10:59:39;;;;;;;7.82;5.43;;;;;;;21.48;28.66;102398.59;5090941;28;20470;-31
2022/05/01 11:02:23;;;;;;;13.93;6.35;;;;;;;21.16;29.61;102392.09;5090680;28;20024;-30
2022/05/01 11:04:49;;;;;;;11.38;6.15;;;;;;;20.60;29.39;102392.63;5090727;28;20028;-30
2022/05/01 11:07:17;;;;;;;7.53;5.93;;;;;;;20.77;28.57;102390.28;5090880;28;20292;-31
2022/05/01 11:09:45;;;;;;;;;;;;;;;20.31;30.19;102382.91;5073343;28;20055;-32
2022/05/01 11:12:11;;;;;;;10.63;5.70;;;;;;;21.70;27.91;102382.66;5090873;28;19977;-31
2022/05/01 11:14:59;;;;;;;11.02;6.35;;;;;;;21.61;27.32;102378.47;5089814;28;20028;-31
2022/05/01 11:17:39;;;;;;;8.80;5.47;;;;;;;21.19;27.88;102377.97;5090603;28;20020;-31
2022/05/01 11:20:10;;;;;;;9.88;4.40;;;;;;;20.87;28.22;102370.72;5089181;28;20663;-31
2022/05/01 11:22:35;;;;;;;8.32;5.68;;;;;;;20.38;30.03;102367.38;5090421;28;20028;-29
2022/05/01 11:25:01;;;;;;;10.15;6.07;;;;;;;20.09;29.64;102363.09;5089231;28;20076;-31
2022/05/01 11:27:27;;;;;;;10.20;6.10;;;;;;;19.70;31.41;102362.84;5090400;28;20357;-30
2022/05/01 11:30:07;;;;;;;11.13;6.28;;;;;;;19.12;31.53;102358.78;5090710;28;20024;-31
2022/05/01 11:32:51;;;;;;;10.27;5.30;;;;;;;20.13;31.79;102357.03;5090137;28;20027;-31
2022/05/01 11:35:18;;;;;;;10.77;5.82;;;;;;;20.60;29.09;102346.13;5071942;28;20108;-31
2022/05/01 11:37:46;;;;;;;9.93;5.90;;;;;;;20.55;29.52;102348.66;5090049;28;20020;-29
2022/05/01 11:40:20;;;;;;;10.30;6.07;;;;;;;21.06;28.96;102339.69;5090296;28;20556;-29
2022/05/01 11:42:46;;;;;;;8.70;5.50;;;;;;;20.82;29.71;102331.13;5089163;28;20052;-30
2022/05/01 11:45:12;;;;;;;11.25;6.45;;;;;;;21.78;27.58;102337.72;5090330;28;20048;-30
2022/05/01 11:47:37;;;;;;;9.70;6.03;;;;;;;21.42;28.38;102335.59;5090198;28;20040;-31